Time;durP1;ratioP1;P1;durP2;ratioP2;P2;SDS_P1;SDS_P2;PMS_P1;PMS_P2;Temp;Humidity;BMP_temperature;BMP_pressure;BME280_temperature;BME280_humidity;BME280_pressure;Samples;Min_cycle;Max_cycle;Signal;HPM_P1;HPM_P2
2022/11/13 00:02:23;;;;;;;;;;;;;;;;;;5108467;28;19919;-56
2022/11/13 00:04:48;;;;;;;;;;;;;;;;;;5105484;28;20343;-55
2022/11/13 00:07:13;;;;;;;;;;;;;;;;;;5109055;28;20015;-55
2022/11/13 00:09:39;;;;;;;;;;;;;;;;;;5108398;28;19941;-55
2022/11/13 00:12:04;;;;;;;;;;;;;;;;;;5109247;28;19922;-55
2022/11/13 00:14:29;;;;;;;;;;;;;;;;;;5109934;28;19930;-56
2022/11/13 00:16:54;;;;;;;;;;;;;;;;;;5108718;28;19976;-58
2022/11/13 00:19:20;;;;;;;;;;;;;;;;;;5108565;28;19919;-56
2022/11/13 00:21:45;;;;;;;;;;;;;;;;;;5107957;28;20308;-55
2022/11/13 00:24:10;;;;;;;;;;;;;;;;;;5109172;28;20385;-56
2022/11/13 00:26:36;;;;;;;;;;;;;;;;;;5107825;28;20389;-56
2022/11/13 00:29:01;;;;;;;;;;;;;;;;;;5108950;28;20010;-56
2022/11/13 00:31:27;;;;;;;;;;;;;;;;;;5108352;28;20297;-55
2022/11/13 00:33:53;;;;;;;;;;;;;;;;;;5109953;28;20373;-55
2022/11/13 00:36:19;;;;;;;;;;;;;;;;;;5109940;28;19926;-54
2022/11/13 00:38:44;;;;;;;;;;;;;;;;;;5111570;27;20277;-56
2022/11/13 00:41:10;;;;;;;;;;;;;;;;;;5109366;28;19930;-55
2022/11/13 00:43:35;;;;;;;;;;;;;;;;;;5109154;28;19938;-54
2022/11/13 00:46:00;;;;;;;;;;;;;;;;;;5109130;28;19923;-57
2022/11/13 00:48:26;;;;;;;;;;;;;;;;;;5108812;28;20357;-55
2022/11/13 00:50:51;;;;;;;;;;;;;;;;;;5107277;28;20008;-55
2022/11/13 00:53:16;;;;;;;;;;;;;;;;;;5107906;28;19928;-54
2022/11/13 00:55:43;;;;;;;;;;;;;;;;;;5108904;28;19961;-56
2022/11/13 00:58:08;;;;;;;;;;;;;;;;;;5108674;28;19919;-55
2022/11/13 01:00:33;;;;;;;;;;;;;;;;;;5107813;28;19916;-56
2022/11/13 01:02:59;;;;;;;;;;;;;;;;;;5107170;28;20662;-58
2022/11/13 01:05:25;;;;;;;;;;;;;;;;;;5107537;28;19916;-56
2022/11/13 01:07:50;;;;;;;;;;;;;;;;;;5109414;28;19915;-56
2022/11/13 01:10:15;;;;;;;;;;;;;;;;;;5108374;28;19922;-55
2022/11/13 01:12:41;;;;;;;;;;;;;;;;;;5107234;28;19934;-55
2022/11/13 01:15:06;;;;;;;;;;;;;;;;;;5108107;28;19923;-56
2022/11/13 01:17:31;;;;;;;;;;;;;;;;;;5108865;28;19912;-55
2022/11/13 01:19:57;;;;;;;;;;;;;;;;;;5102765;28;19915;-56
2022/11/13 01:22:22;;;;;;;;;;;;;;;;;;5105743;28;20003;-56
2022/11/13 01:24:47;;;;;;;;;;;;;;;;;;5108774;28;19926;-54
2022/11/13 01:27:14;;;;;;;;;;;;;;;;;;5108329;28;19937;-55
2022/11/13 01:29:39;;;;;;;;;;;;;;;;;;5108889;28;19923;-55
2022/11/13 01:32:04;;;;;;;;;;;;;;;;;;5107493;28;19920;-55
2022/11/13 01:34:30;;;;;;;;;;;;;;;;;;5109367;28;19915;-52
2022/11/13 01:36:55;;;;;;;;;;;;;;;;;;5108063;28;19912;-55
2022/11/13 01:39:20;;;;;;;;;;;;;;;;;;5108481;28;19924;-55
2022/11/13 01:41:46;;;;;;;;;;;;;;;;;;5106846;28;19911;-55
2022/11/13 01:44:15;;;;;;;;;;;;;;;;;;5110657;28;20301;-53
2022/11/13 01:46:40;;;;;;;;;;;;;;;;;;5111845;28;19961;-53
2022/11/13 01:49:08;;;;;;;;;;;;;;;;;;5112467;28;19923;-54
2022/11/13 01:51:42;;;;;;;;;;;;;;;;;;5110846;28;19916;-54
2022/11/13 01:54:10;;;;;;;;;;;;;;;;;;5110711;28;19923;-52
2022/11/13 01:56:35;;;;;;;;;;;;;;;;;;5108401;28;20377;-54
2022/11/13 01:59:07;;;;;;;;;;;;;;;;;;5112525;28;19937;-53
2022/11/13 02:01:32;;;;;;;;;;;;;;;;;;5110073;28;19923;-52
2022/11/13 02:03:57;;;;;;;;;;;;;;;;;;5112037;28;19919;-53
2022/11/13 02:06:23;;;;;;;;;;;;;;;;;;5112224;28;20515;-55
2022/11/13 02:08:49;;;;;;;;;;;;;;;;;;5112636;28;19972;-53
2022/11/13 02:11:15;;;;;;;;;;;;;;;;;;5111145;28;19972;-54
2022/11/13 02:13:40;;;;;;;;;;;;;;;;;;5111035;28;19915;-52
2022/11/13 02:16:06;;;;;;;;;;;;;;;;;;5112815;28;19916;-53
2022/11/13 02:18:33;;;;;;;;;;;;;;;;;;5109591;28;19916;-54
2022/11/13 02:20:58;;;;;;;;;;;;;;;;;;5111363;28;19933;-55
2022/11/13 02:23:29;;;;;;;;;;;;;;;;;;5111138;28;19915;-55
2022/11/13 02:25:55;;;;;;;;;;;;;;;;;;5111275;28;19968;-55
2022/11/13 02:28:20;;;;;;;;;;;;;;;;;;5112240;28;19916;-55
2022/11/13 02:30:45;;;;;;;;;;;;;;;;;;5111807;28;19919;-55
2022/11/13 02:33:28;;;;;;;;;;;;;;;;;;5110258;28;20301;-54
2022/11/13 02:35:53;;;;;;;;;;;;;;;;;;5106532;28;19927;-54
2022/11/13 02:38:19;;;;;;;;;;;;;;;;;;5111282;28;20330;-55
2022/11/13 02:40:44;;;;;;;;;;;;;;;;;;5110648;28;19916;-55
2022/11/13 02:43:09;;;;;;;;;;;;;;;;;;5110755;28;20496;-54
2022/11/13 02:45:37;;;;;;;;;;;;;;;;;;5111232;28;20421;-54
2022/11/13 02:48:03;;;;;;;;;;;;;;;;;;5111219;28;20006;-55
2022/11/13 02:50:28;;;;;;;;;;;;;;;;;;5110056;28;20069;-53
2022/11/13 02:52:53;;;;;;;;;;;;;;;;;;5109136;28;20545;-55
2022/11/13 02:55:19;;;;;;;;;;;;;;;;;;5110255;28;20393;-55
2022/11/13 02:57:44;;;;;;;;;;;;;;;;;;5110877;28;19916;-56
2022/11/13 03:00:10;;;;;;;;;;;;;;;;;;5111912;28;19938;-55
2022/11/13 03:02:35;;;;;;;;;;;;;;;;;;5109770;28;19922;-54
2022/11/13 03:05:00;;;;;;;;;;;;;;;;;;5110277;28;19916;-53
2022/11/13 03:07:25;;;;;;;;;;;;;;;;;;5111253;28;19947;-54
2022/11/13 03:09:51;;;;;;;;;;;;;;;;;;5111180;28;20324;-52
2022/11/13 03:12:16;;;;;;;;;;;;;;;;;;5109868;28;19924;-54
2022/11/13 03:14:41;;;;;;;;;;;;;;;;;;5110914;28;20389;-53
2022/11/13 03:17:06;;;;;;;;;;;;;;;;;;5110022;28;19920;-55
2022/11/13 03:19:32;;;;;;;;;;;;;;;;;;5110503;28;19919;-55
2022/11/13 03:21:57;;;;;;;;;;;;;;;;;;5109991;28;20755;-55
2022/11/13 03:24:22;;;;;;;;;;;;;;;;;;5110726;28;20007;-56
2022/11/13 03:26:48;;;;;;;;;;;;;;;;;;5108707;28;20408;-55
2022/11/13 03:29:14;;;;;;;;;;;;;;;;;;5110835;28;19915;-54
2022/11/13 03:31:39;;;;;;;;;;;;;;;;;;5110499;28;19933;-54
2022/11/13 03:34:04;;;;;;;;;;;;;;;;;;5104335;28;19916;-54
2022/11/13 03:36:29;;;;;;;;;;;;;;;;;;5110235;28;19976;-55
2022/11/13 03:38:55;;;;;;;;;;;;;;;;;;5110195;28;20441;-55
2022/11/13 03:41:21;;;;;;;;;;;;;;;;;;5108706;28;20006;-54
2022/11/13 03:43:46;;;;;;;;;;;;;;;;;;5109442;28;19966;-56
2022/11/13 03:46:11;;;;;;;;;;;;;;;;;;5109333;28;19959;-54
2022/11/13 03:48:37;;;;;;;;;;;;;;;;;;5110314;28;19916;-55
2022/11/13 03:51:02;;;;;;;;;;;;;;;;;;5110095;27;19958;-55
2022/11/13 03:53:28;;;;;;;;;;;;;;;;;;5108557;28;20501;-53
2022/11/13 03:55:53;;;;;;;;;;;;;;;;;;5110631;28;20398;-56
2022/11/13 03:58:19;;;;;;;;;;;;;;;;;;5109461;28;19998;-56
2022/11/13 04:00:45;;;;;;;;;;;;;;;;;;5110857;28;19916;-54
2022/11/13 04:03:11;;;;;;;;;;;;;;;;;;5109025;28;19915;-54
2022/11/13 04:05:37;;;;;;;;;;;;;;;;;;5109327;28;19924;-52
2022/11/13 04:08:02;;;;;;;;;;;;;;;;;;5109084;28;19922;-56
2022/11/13 04:10:27;;;;;;;;;;;;;;;;;;5105767;28;19965;-55
2022/11/13 04:12:53;;;;;;;;;;;;;;;;;;5109550;28;19916;-52
2022/11/13 04:15:18;;;;;;;;;;;;;;;;;;5109534;28;19926;-54
2022/11/13 04:17:43;;;;;;;;;;;;;;;;;;5109232;28;19928;-54
2022/11/13 04:20:09;;;;;;;;;;;;;;;;;;5109774;28;19915;-57
2022/11/13 04:22:34;;;;;;;;;;;;;;;;;;5109046;28;19931;-55
2022/11/13 04:24:59;;;;;;;;;;;;;;;;;;5109586;28;19915;-54
2022/11/13 04:27:25;;;;;;;;;;;;;;;;;;5109868;28;20417;-55
2022/11/13 04:29:50;;;;;;;;;;;;;;;;;;5109928;28;19951;-52
2022/11/13 04:32:15;;;;;;;;;;;;;;;;;;5109429;28;19972;-54
2022/11/13 04:34:40;;;;;;;;;;;;;;;;;;5109584;28;20289;-55
2022/11/13 04:37:06;;;;;;;;;;;;;;;;;;5108512;28;19955;-55
2022/11/13 04:39:31;;;;;;;;;;;;;;;;;;5108879;28;20305;-53
2022/11/13 04:44:40;;;;;;;;;;;;;;;;;;5109522;28;20533;-52
2022/11/13 04:47:06;;;;;;;;;;;;;;;;;;5108721;28;19916;-55
2022/11/13 04:49:31;;;;;;;;;;;;;;;;;;5105320;28;19923;-52
2022/11/13 04:51:56;;;;;;;;;;;;;;;;;;5106836;28;20404;-54
2022/11/13 04:54:21;;;;;;;;;;;;;;;;;;5108118;28;19920;-53
2022/11/13 04:56:47;;;;;;;;;;;;;;;;;;5108466;28;19940;-54
2022/11/13 04:59:12;;;;;;;;;;;;;;;;;;5109391;28;19916;-53
2022/11/13 05:01:37;;;;;;;;;;;;;;;;;;5108177;28;19923;-54
2022/11/13 05:04:03;;;;;;;;;;;;;;;;;;5106511;28;19916;-52
2022/11/13 05:06:28;;;;;;;;;;;;;;;;;;5108054;28;20300;-54
2022/11/13 05:08:53;;;;;;;;;;;;;;;;;;5108578;28;19924;-54
2022/11/13 05:11:19;;;;;;;;;;;;;;;;;;5108443;28;19919;-54
2022/11/13 05:13:44;;;;;;;;;;;;;;;;;;5109273;28;19951;-53
2022/11/13 05:16:10;;;;;;;;;;;;;;;;;;5108892;28;19969;-54
2022/11/13 05:18:36;;;;;;;;;;;;;;;;;;5110360;28;19916;-54
2022/11/13 05:21:02;;;;;;;;;;;;;;;;;;5113037;28;19916;-54
2022/11/13 05:23:27;;;;;;;;;;;;;;;;;;5112192;28;19915;-55
2022/11/13 05:25:59;;;;;;;;;;;;;;;;;;5112380;28;19923;-54
2022/11/13 05:28:25;;;;;;;;;;;;;;;;;;5110823;28;20446;-53
2022/11/13 05:30:50;;;;;;;;;;;;;;;;;;5112478;28;19920;-54
2022/11/13 05:33:15;;;;;;;;;;;;;;;;;;5111934;28;20412;-51
2022/11/13 05:35:40;;;;;;;;;;;;;;;;;;5111996;28;19916;-56
2022/11/13 05:38:05;;;;;;;;;;;;;;;;;;5113055;28;19915;-51
2022/11/13 05:40:31;;;;;;;;;;;;;;;;;;5114051;28;19916;-56
2022/11/13 05:42:56;;;;;;;;;;;;;;;;;;5112772;28;19957;-56
2022/11/13 05:45:22;;;;;;;;;;;;;;;;;;5112753;28;20024;-53
2022/11/13 05:47:47;;;;;;;;;;;;;;;;;;5112172;28;20278;-55
2022/11/13 05:50:12;;;;;;;;;;;;;;;;;;5112988;27;19916;-55
2022/11/13 05:52:37;;;;;;;;;;;;;;;;;;5111458;28;19924;-55
2022/11/13 05:55:04;;;;;;;;;;;;;;;;;;5111776;28;19919;-54
2022/11/13 05:57:29;;;;;;;;;;;;;;;;;;5112208;28;19939;-56
2022/11/13 05:59:54;;;;;;;;;;;;;;;;;;5112141;28;20282;-52
2022/11/13 06:02:19;;;;;;;;;;;;;;;;;;5111720;28;20015;-56
2022/11/13 06:04:46;;;;;;;;;;;;;;;;;;5111008;28;19919;-56
2022/11/13 06:07:12;;;;;;;;;;;;;;;;;;5109769;28;20304;-57
2022/11/13 06:09:37;;;;;;;;;;;;;;;;;;5112552;28;19915;-58
2022/11/13 06:12:02;;;;;;;;;;;;;;;;;;5111342;28;20001;-57
2022/11/13 06:14:27;;;;;;;;;;;;;;;;;;5107524;28;19923;-58
2022/11/13 06:16:53;;;;;;;;;;;;;;;;;;5112063;28;19923;-57
2022/11/13 06:19:18;;;;;;;;;;;;;;;;;;5111065;28;19927;-58
2022/11/13 06:21:43;;;;;;;;;;;;;;;;;;5109962;28;19923;-57
2022/11/13 06:24:10;;;;;;;;;;;;;;;;;;5109893;28;19922;-57
2022/11/13 06:26:35;;;;;;;;;;;;;;;;;;5112208;28;20389;-57
2022/11/13 06:29:02;;;;;;;;;;;;;;;;;;5110380;28;20045;-58
2022/11/13 06:31:28;;;;;;;;;;;;;;;;;;5111537;28;19963;-56
2022/11/13 06:33:53;;;;;;;;;;;;;;;;;;5111738;28;19938;-56
2022/11/13 06:36:23;;;;;;;;;;;;;;;;;;5111229;28;19915;-57
2022/11/13 06:38:48;;;;;;;;;;;;;;;;;;5108778;28;19926;-57
2022/11/13 06:41:15;;;;;;;;;;;;;;;;;;5111657;28;20425;-55
2022/11/13 06:43:40;;;;;;;;;;;;;;;;;;5110275;28;20415;-56
2022/11/13 06:46:07;;;;;;;;;;;;;;;;;;5110112;28;19916;-57
2022/11/13 06:48:32;;;;;;;;;;;;;;;;;;5108448;28;19916;-57
2022/11/13 06:51:01;;;;;;;;;;;;;;;;;;5110861;28;19926;-58
2022/11/13 06:53:27;;;;;;;;;;;;;;;;;;5131902;27;19969;-57
2022/11/13 06:55:52;;;;;;;;;;;;;;;;;;5111638;28;20326;-57
2022/11/13 06:58:17;;;;;;;;;;;;;;;;;;5111090;28;19941;-57
2022/11/13 07:00:43;;;;;;;;;;;;;;;;;;5111001;28;19916;-56
2022/11/13 07:03:14;;;;;;;;;;;;;;;;;;5110533;28;20010;-57
2022/11/13 07:05:39;;;;;;;;;;;;;;;;;;5109413;28;19916;-56
2022/11/13 07:08:04;;;;;;;;;;;;;;;;;;5110898;28;19923;-58
2022/11/13 07:10:30;;;;;;;;;;;;;;;;;;5109084;28;19923;-57
2022/11/13 07:12:57;;;;;;;;;;;;;;;;;;5108835;28;19916;-58
2022/11/13 07:15:22;;;;;;;;;;;;;;;;;;5110274;28;20377;-58
2022/11/13 07:17:47;;;;;;;;;;;;;;;;;;5109693;28;19923;-58
2022/11/13 07:20:13;;;;;;;;;;;;;;;;;;5109619;28;19919;-56
2022/11/13 07:22:38;;;;;;;;;;;;;;;;;;5108973;28;19926;-58
2022/11/13 07:25:03;;;;;;;;;;;;;;;;;;5110919;28;20021;-59
2022/11/13 07:27:29;;;;;;;;;;;;;;;;;;5110734;28;19931;-59
2022/11/13 07:29:54;;;;;;;;;;;;;;;;;;5110694;28;20301;-57
2022/11/13 07:32:19;;;;;;;;;;;;;;;;;;5109352;28;19926;-57
2022/11/13 07:34:44;;;;;;;;;;;;;;;;;;5107967;28;19947;-58
2022/11/13 07:37:10;;;;;;;;;;;;;;;;;;5110349;28;20389;-60
2022/11/13 07:39:35;;;;;;;;;;;;;;;;;;5110514;28;19968;-58
2022/11/13 07:42:00;;;;;;;;;;;;;;;;;;5108666;28;19915;-57
2022/11/13 07:44:25;;;;;;;;;;;;;;;;;;5111086;28;20555;-58
2022/11/13 07:46:51;;;;;;;;;;;;;;;;;;5110363;28;19977;-58
2022/11/13 07:49:16;;;;;;;;;;;;;;;;;;5108852;28;19927;-58
2022/11/13 07:51:41;;;;;;;;;;;;;;;;;;5109227;28;19972;-58
2022/11/13 07:54:06;;;;;;;;;;;;;;;;;;5110141;28;20002;-59
2022/11/13 07:56:32;;;;;;;;;;;;;;;;;;5109923;28;19922;-58
2022/11/13 07:58:57;;;;;;;;;;;;;;;;;;5109334;28;19968;-58
2022/11/13 08:01:22;;;;;;;;;;;;;;;;;;5108434;28;19931;-58
2022/11/13 08:03:47;;;;;;;;;;;;;;;;;;5110336;28;19919;-58
2022/11/13 08:06:13;;;;;;;;;;;;;;;;;;5109897;28;19922;-58
2022/11/13 08:08:38;;;;;;;;;;;;;;;;;;5109097;28;20397;-57
2022/11/13 08:11:07;;;;;;;;;;;;;;;;;;5109233;28;19942;-58
2022/11/13 08:13:33;;;;;;;;;;;;;;;;;;5107441;28;19916;-58
2022/11/13 08:15:59;;;;;;;;;;;;;;;;;;5109295;28;19943;-57
2022/11/13 08:18:25;;;;;;;;;;;;;;;;;;5109581;28;19943;-58
2022/11/13 08:20:50;;;;;;;;;;;;;;;;;;5109834;28;19923;-57
2022/11/13 08:23:16;;;;;;;;;;;;;;;;;;5108967;28;19991;-57
2022/11/13 08:25:41;;;;;;;;;;;;;;;;;;5109204;28;19923;-57
2022/11/13 08:28:06;;;;;;;;;;;;;;;;;;5109555;28;20324;-58
2022/11/13 08:30:31;;;;;;;;;;;;;;;;;;5109994;28;19916;-59
2022/11/13 08:32:57;;;;;;;;;;;;;;;;;;5108183;28;20431;-58
2022/11/13 08:35:22;;;;;;;;;;;;;;;;;;5109905;28;19963;-58
2022/11/13 08:37:47;;;;;;;;;;;;;;;;;;5108974;28;19943;-58
2022/11/13 08:40:13;;;;;;;;;;;;;;;;;;5109734;28;19915;-58
2022/11/13 08:42:38;;;;;;;;;;;;;;;;;;5107379;28;19965;-58
2022/11/13 08:45:03;;;;;;;;;;;;;;;;;;5109199;27;19916;-58
2022/11/13 08:47:29;;;;;;;;;;;;;;;;;;5108940;28;19915;-58
2022/11/13 08:49:55;;;;;;;;;;;;;;;;;;5107945;28;19916;-57
2022/11/13 08:52:20;;;;;;;;;;;;;;;;;;5107668;28;19923;-57
2022/11/13 08:54:45;;;;;;;;;;;;;;;;;;5108848;28;20727;-57
2022/11/13 08:57:10;;;;;;;;;;;;;;;;;;5108872;28;19916;-58
2022/11/13 08:59:36;;;;;;;;;;;;;;;;;;5109774;28;19954;-57
2022/11/13 09:02:01;;;;;;;;;;;;;;;;;;5108011;28;20299;-56
2022/11/13 09:04:26;;;;;;;;;;;;;;;;;;5108843;28;19920;-59
2022/11/13 09:06:52;;;;;;;;;;;;;;;;;;5102321;28;19915;-59
2022/11/13 09:09:18;;;;;;;;;;;;;;;;;;5108453;27;20297;-59
2022/11/13 09:11:43;;;;;;;;;;;;;;;;;;5108648;28;20035;-59
2022/11/13 09:14:08;;;;;;;;;;;;;;;;;;5108572;28;19963;-59
2022/11/13 09:16:34;;;;;;;;;;;;;;;;;;5107977;28;19916;-58
2022/11/13 09:18:59;;;;;;;;;;;;;;;;;;5109011;28;20373;-59
2022/11/13 09:21:24;;;;;;;;;;;;;;;;;;5108018;28;20334;-59
2022/11/13 09:23:50;;;;;;;;;;;;;;;;;;5108303;28;19977;-58
2022/11/13 09:26:15;;;;;;;;;;;;;;;;;;5108458;28;19915;-58
2022/11/13 09:28:41;;;;;;;;;;;;;;;;;;5109178;28;19915;-58
2022/11/13 09:31:06;;;;;;;;;;;;;;;;;;5109006;28;19950;-58
2022/11/13 09:33:32;;;;;;;;;;;;;;;;;;5107485;28;19916;-58
2022/11/13 09:35:57;;;;;;;;;;;;;;;;;;5107567;28;19962;-57
2022/11/13 09:38:22;;;;;;;;;;;;;;;;;;5108382;28;20309;-58
2022/11/13 09:40:54;;;;;;;;;;;;;;;;;;5109530;28;19924;-58
2022/11/13 09:43:28;;;;;;;;;;;;;;;;;;5109115;28;19920;-58
2022/11/13 09:45:56;;;;;;;;;;;;;;;;;;5107546;28;19935;-58
2022/11/13 09:48:39;;;;;;;;;;;;;;;;;;5108442;28;19916;-59
2022/11/13 09:51:09;;;;;;;;;;;;;;;;;;5108449;28;20006;-58
2022/11/13 09:53:36;;;;;;;;;;;;;;;;;;5107295;28;19931;-58
2022/11/13 09:56:10;;;;;;;;;;;;;;;;;;5108702;28;19920;-59
2022/11/13 09:58:36;;;;;;;;;;;;;;;;;;5108383;28;19922;-57
2022/11/13 10:01:01;;;;;;;;;;;;;;;;;;5108845;28;19931;-59
2022/11/13 10:03:42;;;;;;;;;;;;;;;;;;5106841;28;19955;-58
2022/11/13 10:06:07;;;;;;;;;;;;;;;;;;5111167;28;19916;-58
2022/11/13 10:08:38;;;;;;;;;;;;;;;;;;5112164;28;19916;-58
2022/11/13 10:11:13;;;;;;;;;;;;;;;;;;5112254;28;19924;-58
2022/11/13 10:13:41;;;;;;;;;;;;;;;;;;5111214;28;19947;-58
2022/11/13 10:16:15;;;;;;;;;;;;;;;;;;5112078;28;19957;-58
2022/11/13 10:18:41;;;;;;;;;;;;;;;;;;5111280;28;19916;-58
2022/11/13 10:21:28;;;;;;;;;;;;;;;;;;5111921;28;19989;-59
2022/11/13 10:23:55;;;;;;;;;;;;;;;;;;5111069;28;20050;-58
2022/11/13 10:26:23;;;;;;;;;;;;;;;;;;5111594;28;20005;-58
2022/11/13 10:28:52;;;;;;;;;;;;;;;;;;5111317;28;20165;-58
2022/11/13 10:31:18;;;;;;;;;;;;;;;;;;5111457;28;19964;-57
2022/11/13 10:33:43;;;;;;;;;;;;;;;;;;5111263;28;19922;-57
2022/11/13 10:36:20;;;;;;;;;;;;;;;;;;5111839;28;20396;-58
2022/11/13 10:38:52;;;;;;;;;;;;;;;;;;5110520;28;19916;-58
2022/11/13 10:41:19;;;;;;;;;;;;;;;;;;5110564;28;19923;-58
2022/11/13 10:44:08;;;;;;;;;;;;;;;;;;5111474;28;19961;-58
2022/11/13 10:46:33;;;;;;;;;;;;;;;;;;5103872;28;20373;-58
2022/11/13 10:49:10;;;;;;;;;;;;;;;;;;5112115;28;19971;-58
2022/11/13 10:51:36;;;;;;;;;;;;;;;;;;5110702;28;20465;-58
2022/11/13 10:54:14;;;;;;;;;;;;;;;;;;5111279;27;19915;-56
2022/11/13 10:56:40;;;;;;;;;;;;;;;;;;5109791;28;19916;-56
2022/11/13 10:59:16;;;;;;;;;;;;;;;;;;5111117;27;20401;-57
2022/11/13 11:01:42;;;;;;;;;;;;;;;;;;5111033;28;20434;-57
2022/11/13 11:04:13;;;;;;;;;;;;;;;;;;5107854;28;19923;-56
2022/11/13 11:06:39;;;;;;;;;;;;;;;;;;5110265;28;19965;-57
2022/11/13 11:09:16;;;;;;;;;;;;;;;;;;5140441;27;20006;-57
2022/11/13 11:14:32;;;;;;;;;;;;;;;;;;5111504;28;19943;-58
2022/11/13 11:16:59;;;;;;;;;;;;;;;;;;5110372;28;19951;-58
2022/11/13 11:19:26;;;;;;;;;;;;;;;;;;5105674;28;19923;-58
2022/11/13 11:21:55;;;;;;;;;;;;;;;;;;5109893;28;20130;-57
2022/11/13 11:24:27;;;;;;;;;;;;;;;;;;5110189;28;20308;-58
2022/11/13 11:26:58;;;;;;;;;;;;;;;;;;5110048;28;20617;-57
2022/11/13 11:29:33;;;;;;;;;;;;;;;;;;5106221;28;19916;-56
2022/11/13 11:32:17;;;;;;;;;;;;;;;;;;5108526;28;19928;-57
2022/11/13 11:34:44;;;;;;;;;;;;;;;;;;5110129;28;19916;-58
2022/11/13 11:37:14;;;;;;;;;;;;;;;;;;5108336;28;20320;-57
2022/11/13 11:39:44;;;;;;;;;;;;;;;;;;5108913;28;19920;-58
2022/11/13 11:42:25;;;;;;;;;;;;;;;;;;5108456;28;19915;-58
2022/11/13 11:45:12;;;;;;;;;;;;;;;;;;5110046;28;20296;-57
2022/11/13 11:47:37;;;;;;;;;;;;;;;;;;5109728;28;19920;-58
2022/11/13 11:50:03;;;;;;;;;;;;;;;;;;5110041;28;20894;-57
2022/11/13 11:52:44;;;;;;;;;;;;;;;;;;5109894;28;19930;-56
2022/11/13 11:55:27;;;;;;;;;;;;;;;;;;5108251;28;19919;-58
2022/11/13 11:57:59;;;;;;;;;;;;;;;;;;5109198;27;19916;-58
2022/11/13 12:00:26;;;;;;;;;;;;;;;;;;5109511;28;19981;-58
2022/11/13 12:02:54;;;;;;;;;;;;;;;;;;5109672;27;20033;-58
2022/11/13 12:05:24;;;;;;;;;;;;;;;;;;5108310;28;19920;-58
2022/11/13 12:07:50;;;;;;;;;;;;;;;;;;5109672;28;19919;-59
2022/11/13 12:10:28;;;;;;;;;;;;;;;;;;5107011;28;19923;-58
2022/11/13 12:12:53;;;;;;;;;;;;;;;;;;5109101;28;21300;-57
2022/11/13 12:15:25;;;;;;;;;;;;;;;;;;5108225;28;21330;-58
2022/11/13 12:18:05;;;;;;;;;;;;;;;;;;5107555;28;20340;-58
2022/11/13 12:20:35;;;;;;;;;;;;;;;;;;5109516;28;19922;-58
2022/11/13 12:23:09;;;;;;;;;;;;;;;;;;5108626;28;19927;-58
2022/11/13 12:25:43;;;;;;;;;;;;;;;;;;5109299;28;19915;-58
2022/11/13 12:28:27;;;;;;;;;;;;;;;;;;5108776;28;19926;-59
2022/11/13 12:31:08;;;;;;;;;;;;;;;;;;5137838;27;19934;-59
2022/11/13 12:33:39;;;;;;;;;;;;;;;;;;5108267;28;19916;-58
2022/11/13 12:36:08;;;;;;;;;;;;;;;;;;5105979;28;19919;-58
2022/11/13 12:38:36;;;;;;;;;;;;;;;;;;5108680;28;20320;-59
2022/11/13 12:41:20;;;;;;;;;;;;;;;;;;5108589;28;19924;-60
2022/11/13 12:43:57;;;;;;;;;;;;;;;;;;5109194;28;19968;-59
2022/11/13 12:46:32;;;;;;;;;;;;;;;;;;5108263;28;19915;-59
2022/11/13 12:48:59;;;;;;;;;;;;;;;;;;5108755;28;19916;-59
2022/11/13 12:51:36;;;;;;;;;;;;;;;;;;5108184;28;19923;-59
2022/11/13 12:54:02;;;;;;;;;;;;;;;;;;5107705;28;19916;-59
2022/11/13 12:56:27;;;;;;;;;;;;;;;;;;5108426;28;20265;-59
2022/11/13 12:58:58;;;;;;;;;;;;;;;;;;5108746;28;19966;-59
2022/11/13 13:01:25;;;;;;;;;;;;;;;;;;5104577;28;20411;-59
2022/11/13 13:04:09;;;;;;;;;;;;;;;;;;5107485;28;19920;-59
2022/11/13 13:06:34;;;;;;;;;;;;;;;;;;5107395;28;20007;-59
2022/11/13 13:08:59;;;;;;;;;;;;;;;;;;5108713;28;20366;-58
2022/11/13 13:11:31;;;;;;;;;;;;;;;;;;5108905;28;19959;-59
2022/11/13 13:14:02;;;;;;;;;;;;;;;;;;5108278;28;20002;-59
2022/11/13 13:16:28;;;;;;;;;;;;;;;;;;5108806;28;20292;-59
2022/11/13 13:19:04;;;;;;;;;;;;;;;;;;5109499;28;20006;-59
2022/11/13 13:21:39;;;;;;;;;;;;;;;;;;5108920;28;19920;-58
2022/11/13 13:24:09;;;;;;;;;;;;;;;;;;5108321;28;19916;-59
2022/11/13 13:26:42;;;;;;;;;;;;;;;;;;5104931;28;19923;-59
2022/11/13 13:29:15;;;;;;;;;;;;;;;;;;5108548;28;19919;-58
2022/11/13 13:31:45;;;;;;;;;;;;;;;;;;5106945;28;19942;-59
2022/11/13 13:34:21;;;;;;;;;;;;;;;;;;5104001;28;20009;-59
2022/11/13 13:37:05;;;;;;;;;;;;;;;;;;5106104;28;19951;-59
2022/11/13 13:39:41;;;;;;;;;;;;;;;;;;5109251;28;19922;-58
2022/11/13 13:42:15;;;;;;;;;;;;;;;;;;5112487;28;19922;-58
2022/11/13 13:44:59;;;;;;;;;;;;;;;;;;5112176;28;19916;-58
2022/11/13 13:47:27;;;;;;;;;;;;;;;;;;5111906;28;19923;-59
2022/11/13 13:49:53;;;;;;;;;;;;;;;;;;5112427;28;19915;-59
2022/11/13 13:52:21;;;;;;;;;;;;;;;;;;5111887;28;20304;-58
2022/11/13 13:54:46;;;;;;;;;;;;;;;;;;5111255;28;20400;-57
2022/11/13 13:57:13;;;;;;;;;;;;;;;;;;5112592;28;19915;-58
2022/11/13 13:59:40;;;;;;;;;;;;;;;;;;5111719;28;20436;-58
2022/11/13 14:02:19;;;;;;;;;;;;;;;;;;5111557;28;19923;-58
2022/11/13 14:04:46;;;;;;;;;;;;;;;;;;5112349;28;19924;-57
2022/11/13 14:07:19;;;;;;;;;;;;;;;;;;5111264;28;19916;-58
2022/11/13 14:09:44;;;;;;;;;;;;;;;;;;5111164;28;19922;-58
2022/11/13 14:12:19;;;;;;;;;;;;;;;;;;5111820;28;19919;-58
2022/11/13 14:14:44;;;;;;;;;;;;;;;;;;5117150;27;20422;-58
2022/11/13 14:17:10;;;;;;;;;;;;;;;;;;5111349;28;19916;-58
2022/11/13 14:19:35;;;;;;;;;;;;;;;;;;5111109;28;19961;-59
2022/11/13 14:22:02;;;;;;;;;;;;;;;;;;5110958;28;19919;-58
2022/11/13 14:24:33;;;;;;;;;;;;;;;;;;5112726;28;20310;-58
2022/11/13 14:26:58;;;;;;;;;;;;;;;;;;5109855;28;19923;-59
2022/11/13 14:29:33;;;;;;;;;;;;;;;;;;5111295;28;19919;-58
2022/11/13 14:32:03;;;;;;;;;;;;;;;;;;5110800;28;19966;-58
2022/11/13 14:34:29;;;;;;;;;;;;;;;;;;5111721;28;19922;-58
2022/11/13 14:36:55;;;;;;;;;;;;;;;;;;5109951;28;20549;-58
2022/11/13 14:39:27;;;;;;;;;;;;;;;;;;5111187;28;19916;-57
2022/11/13 14:41:57;;;;;;;;;;;;;;;;;;5110442;28;19939;-58
2022/11/13 14:44:30;;;;;;;;;;;;;;;;;;5110938;28;20380;-57
2022/11/13 14:47:03;;;;;;;;;;;;;;;;;;5110949;28;19920;-58
2022/11/13 14:49:30;;;;;;;;;;;;;;;;;;5108222;28;19985;-57
2022/11/13 14:51:56;;;;;;;;;;;;;;;;;;5110816;28;19920;-58
2022/11/13 14:54:35;;;;;;;;;;;;;;;;;;5110739;27;19916;-60
2022/11/13 14:57:10;;;;;;;;;;;;;;;;;;5110215;28;20020;-57
2022/11/13 14:59:35;;;;;;;;;;;;;;;;;;5111553;28;19923;-59
2022/11/13 15:02:01;;;;;;;;;;;;;;;;;;5110482;28;19915;-57
2022/11/13 15:04:27;;;;;;;;;;;;;;;;;;5110310;28;20453;-59
2022/11/13 15:06:54;;;;;;;;;;;;;;;;;;5110819;28;19998;-58
2022/11/13 15:09:20;;;;;;;;;;;;;;;;;;5111968;27;19920;-59
2022/11/13 15:11:46;;;;;;;;;;;;;;;;;;5109914;28;19963;-59
2022/11/13 15:14:12;;;;;;;;;;;;;;;;;;5109780;28;20449;-59
2022/11/13 15:16:37;;;;;;;;;;;;;;;;;;5110611;28;19920;-59
2022/11/13 15:19:21;;;;;;;;;;;;;;;;;;5110848;28;20297;-57
2022/11/13 15:21:47;;;;;;;;;;;;;;;;;;5107317;28;19915;-58
2022/11/13 15:24:12;;;;;;;;;;;;;;;;;;5109259;28;20429;-59
2022/11/13 15:26:38;;;;;;;;;;;;;;;;;;5109783;28;19922;-60
2022/11/13 15:29:03;;;;;;;;;;;;;;;;;;5110356;28;19960;-58
2022/11/13 15:31:33;;;;;;;;;;;;;;;;;;5109649;28;19947;-58
2022/11/13 15:33:59;;;;;;;;;;;;;;;;;;5107781;28;19916;-58
2022/11/13 15:36:25;;;;;;;;;;;;;;;;;;5109851;28;20439;-59
2022/11/13 15:38:50;;;;;;;;;;;;;;;;;;5110044;28;19915;-59
2022/11/13 15:41:18;;;;;;;;;;;;;;;;;;5110866;28;19915;-56
2022/11/13 15:43:50;;;;;;;;;;;;;;;;;;5108869;28;19941;-58
2022/11/13 15:46:17;;;;;;;;;;;;;;;;;;5109660;28;19999;-57
2022/11/13 15:48:46;;;;;;;;;;;;;;;;;;5108631;28;19916;-57
2022/11/13 15:51:14;;;;;;;;;;;;;;;;;;5109531;28;20381;-56
2022/11/13 15:53:39;;;;;;;;;;;;;;;;;;5107722;28;19920;-59
2022/11/13 15:56:05;;;;;;;;;;;;;;;;;;5109410;27;20011;-57
2022/11/13 15:58:30;;;;;;;;;;;;;;;;;;5110289;28;19916;-57
2022/11/13 16:00:55;;;;;;;;;;;;;;;;;;5110109;28;19920;-56
2022/11/13 16:03:22;;;;;;;;;;;;;;;;;;5108472;28;19926;-58
2022/11/13 16:05:48;;;;;;;;;;;;;;;;;;5109354;28;20397;-57
2022/11/13 16:08:14;;;;;;;;;;;;;;;;;;5110222;28;19916;-57
2022/11/13 16:10:39;;;;;;;;;;;;;;;;;;5110940;27;20010;-57
2022/11/13 16:13:04;;;;;;;;;;;;;;;;;;5109426;28;20465;-58
2022/11/13 16:15:30;;;;;;;;;;;;;;;;;;5109288;28;19920;-56
2022/11/13 16:17:56;;;;;;;;;;;;;;;;;;5109667;28;19931;-58
2022/11/13 16:20:22;;;;;;;;;;;;;;;;;;5109104;28;20300;-58
2022/11/13 16:22:48;;;;;;;;;;;;;;;;;;5107979;28;19916;-58
2022/11/13 16:25:15;;;;;;;;;;;;;;;;;;5108706;28;20392;-57
2022/11/13 16:27:40;;;;;;;;;;;;;;;;;;5109750;28;20403;-57
2022/11/13 16:30:11;;;;;;;;;;;;;;;;;;5109520;27;19923;-58
2022/11/13 16:32:36;;;;;;;;;;;;;;;;;;5108555;28;20385;-57
2022/11/13 16:35:02;;;;;;;;;;;;;;;;;;5108839;28;19922;-57
2022/11/13 16:37:27;;;;;;;;;;;;;;;;;;5109616;28;19922;-58
2022/11/13 16:39:52;;;;;;;;;;;;;;;;;;5105919;28;20042;-57
2022/11/13 16:42:18;;;;;;;;;;;;;;;;;;5107624;28;20017;-58
2022/11/13 16:44:43;;;;;;;;;;;;;;;;;;5108809;28;19916;-59
2022/11/13 16:47:17;;;;;;;;;;;;;;;;;;5108865;28;19966;-58
2022/11/13 16:49:43;;;;;;;;;;;;;;;;;;5109500;28;20299;-58
2022/11/13 16:52:08;;;;;;;;;;;;;;;;;;5107581;28;19920;-57
2022/11/13 16:54:33;;;;;;;;;;;;;;;;;;5108168;28;19915;-58